Time;durP1;ratioP1;P1;durP2;ratioP2;P2;SDS_P1;SDS_P2;PMS_P1;PMS_P2;Temp;Humidity;BMP_temperature;BMP_pressure;BME280_temperature;BME280_humidity;BME280_pressure;Samples;Min_cycle;Max_cycle;Signal;HPM_P1;HPM_P2
2022/02/15 00:01:41;;;;;;;56.10;50.23;;;;;;;;;;4952363;29;20086;-81
2022/02/15 00:04:07;;;;;;;57.03;50.88;;;;;;;;;;4965172;29;20015;-83
2022/02/15 00:06:32;;;;;;;56.63;50.80;;;;;;;;;;4965432;29;20266;-83
2022/02/15 00:08:57;;;;;;;55.27;49.83;;;;;;;;;;4961674;29;20043;-83
2022/02/15 00:11:22;;;;;;;56.37;50.57;;;;;;;;;;4952774;28;20020;-81
2022/02/15 00:13:47;;;;;;;59.47;52.42;;;;;;;;;;4948657;29;20058;-82
2022/02/15 00:16:13;;;;;;;54.97;49.67;;;;;;;;;;4943823;29;20031;-83
2022/02/15 00:18:38;;;;;;;55.08;49.67;;;;;;;;;;4951156;29;20053;-83
2022/02/15 00:21:03;;;;;;;58.53;51.73;;;;;;;;;;4943248;29;21029;-83
2022/02/15 00:23:29;;;;;;;55.47;49.87;;;;;;;;;;4959244;29;20042;-82
2022/02/15 00:25:54;;;;;;;56.53;50.78;;;;;;;;;;4954280;29;20030;-82
2022/02/15 00:28:19;;;;;;;55.72;50.35;;;;;;;;;;4953680;29;20045;-82
2022/02/15 00:30:48;;;;;;;56.07;50.20;;;;;;;;;;4950699;29;20078;-82
2022/02/15 00:33:13;;;;;;;56.53;50.50;;;;;;;;;;4947174;29;20031;-82
2022/02/15 00:35:41;;;;;;;56.93;50.97;;;;;;;;;;4955104;29;20035;-81
2022/02/15 00:38:06;;;;;;;56.55;50.72;;;;;;;;;;4945962;29;20028;-83
2022/02/15 00:40:31;;;;;;;56.73;50.83;;;;;;;;;;4955482;28;20020;-81
2022/02/15 00:42:57;;;;;;;55.87;50.40;;;;;;;;;;4950903;29;20018;-83
2022/02/15 00:45:22;;;;;;;64.83;52.43;;;;;;;;;;4946092;29;20029;-81
2022/02/15 00:47:47;;;;;;;56.80;50.63;;;;;;;;;;4943300;29;20535;-83
2022/02/15 00:50:12;;;;;;;55.83;50.03;;;;;;;;;;4940885;29;20090;-83
2022/02/15 00:52:37;;;;;;;57.30;51.40;;;;;;;;;;4946429;29;20186;-80
2022/02/15 00:55:04;;;;;;;55.97;50.53;;;;;;;;;;4947479;29;20094;-81
2022/02/15 00:57:29;;;;;;;56.55;50.47;;;;;;;;;;4942302;29;20023;-82
2022/02/15 00:59:54;;;;;;;55.97;50.13;;;;;;;;;;4953230;28;20114;-81
2022/02/15 01:02:19;;;;;;;56.40;50.37;;;;;;;;;;4946246;29;20044;-81
2022/02/15 01:04:45;;;;;;;55.97;50.33;;;;;;;;;;4951352;29;20096;-82
2022/02/15 01:07:10;;;;;;;56.13;50.37;;;;;;;;;;4946479;29;20633;-82
2022/02/15 01:09:35;;;;;;;56.80;50.87;;;;;;;;;;4952390;29;20027;-82
2022/02/15 01:12:00;;;;;;;56.47;50.65;;;;;;;;;;4942019;29;20024;-81
2022/02/15 01:14:25;;;;;;;56.80;50.70;;;;;;;;;;4948391;29;20106;-81
2022/02/15 01:16:50;;;;;;;59.27;51.50;;;;;;;;;;4941321;29;22875;-81
2022/02/15 01:19:16;;;;;;;62.92;51.10;;;;;;;;;;4957334;28;20188;-81
2022/02/15 01:21:41;;;;;;;57.87;51.67;;;;;;;;;;4955398;29;20035;-81
2022/02/15 01:24:06;;;;;;;57.10;51.03;;;;;;;;;;4962261;29;20035;-79
2022/02/15 01:26:31;;;;;;;57.13;51.20;;;;;;;;;;4958640;29;20043;-82
2022/02/15 01:28:56;;;;;;;58.55;50.95;;;;;;;;;;4952592;29;20024;-81
2022/02/15 01:31:22;;;;;;;57.40;51.57;;;;;;;;;;4948701;28;20031;-81
2022/02/15 01:33:47;;;;;;;55.57;50.37;;;;;;;;;;4948754;29;20031;-82
2022/02/15 01:36:12;;;;;;;57.20;51.07;;;;;;;;;;4954563;29;20027;-81
2022/02/15 01:38:37;;;;;;;58.03;52.13;;;;;;;;;;4947168;29;20031;-81
2022/02/15 01:41:04;;;;;;;59.07;52.63;;;;;;;;;;4948261;28;20027;-81
2022/02/15 01:43:30;;;;;;;57.28;51.63;;;;;;;;;;4957990;28;20414;-81
2022/02/15 01:45:55;;;;;;;56.50;51.00;;;;;;;;;;4948491;28;20027;-81
2022/02/15 01:48:20;;;;;;;57.80;52.00;;;;;;;;;;4947059;29;20086;-82
2022/02/15 01:50:45;;;;;;;61.25;53.50;;;;;;;;;;4946027;28;20027;-80
2022/02/15 01:53:11;;;;;;;56.80;51.30;;;;;;;;;;4950072;29;20027;-81
2022/02/15 01:55:36;;;;;;;56.77;51.07;;;;;;;;;;4955696;29;20061;-82
2022/02/15 01:58:01;;;;;;;59.83;53.30;;;;;;;;;;4943731;29;20030;-81
2022/02/15 02:00:26;;;;;;;63.70;53.43;;;;;;;;;;4958884;28;20050;-78
2022/02/15 02:02:51;;;;;;;64.33;54.40;;;;;;;;;;4963349;28;20015;-78
2022/02/15 02:08:04;;;;;;;59.08;52.90;;;;;;;;;;4966547;28;20260;-80
2022/02/15 02:10:29;;;;;;;60.17;53.33;;;;;;;;;;4970447;28;20086;-79
2022/02/15 02:12:54;;;;;;;63.77;53.97;;;;;;;;;;4964977;28;20016;-79
2022/02/15 02:15:20;;;;;;;60.47;53.97;;;;;;;;;;4970971;28;20035;-80
2022/02/15 02:17:46;;;;;;;61.90;53.75;;;;;;;;;;4970027;28;20011;-80
2022/02/15 02:20:11;;;;;;;69.00;55.57;;;;;;;;;;4966701;28;20126;-80
2022/02/15 02:22:37;;;;;;;60.88;54.35;;;;;;;;;;4954552;29;20031;-81
2022/02/15 02:25:02;;;;;;;59.60;53.27;;;;;;;;;;4957980;29;20027;-81
2022/02/15 02:27:29;;;;;;;61.05;54.08;;;;;;;;;;4955961;29;20034;-81
2022/02/15 02:29:55;;;;;;;60.03;53.53;;;;;;;;;;4961069;29;20023;-82
2022/02/15 02:32:24;;;;;;;59.22;53.13;;;;;;;;;;4953797;29;20047;-82
2022/02/15 02:34:50;;;;;;;63.63;54.13;;;;;;;;;;4956871;28;20020;-81
2022/02/15 02:37:15;;;;;;;60.22;53.95;;;;;;;;;;4958279;29;20048;-83
2022/02/15 02:39:44;;;;;;;60.40;53.83;;;;;;;;;;4959143;28;20042;-81
2022/02/15 02:42:10;;;;;;;59.88;53.50;;;;;;;;;;4950031;29;20023;-81
2022/02/15 02:44:35;;;;;;;57.67;52.20;;;;;;;;;;4954721;29;20062;-82
2022/02/15 02:47:00;;;;;;;59.43;53.40;;;;;;;;;;4963568;29;20282;-81
2022/02/15 02:49:25;;;;;;;58.93;53.03;;;;;;;;;;4962815;28;20030;-80
2022/02/15 02:51:51;;;;;;;59.88;53.97;;;;;;;;;;4954885;29;20020;-80
2022/02/15 02:54:16;;;;;;;61.50;54.87;;;;;;;;;;4955818;29;20088;-81
2022/02/15 02:56:41;;;;;;;61.77;54.30;;;;;;;;;;4950483;29;20031;-82
2022/02/15 02:59:09;;;;;;;59.00;53.10;;;;;;;;;;4959106;29;20055;-82
2022/02/15 03:01:35;;;;;;;60.75;53.85;;;;;;;;;;4945388;28;20019;-81
2022/02/15 03:04:00;;;;;;;60.47;54.13;;;;;;;;;;4958944;29;20438;-83
2022/02/15 03:06:26;;;;;;;60.27;53.83;;;;;;;;;;4962876;29;20024;-82
2022/02/15 03:08:52;;;;;;;60.20;54.13;;;;;;;;;;4949374;29;20117;-80
2022/02/15 03:11:20;;;;;;;63.83;54.97;;;;;;;;;;4942738;29;20072;-83
2022/02/15 03:13:45;;;;;;;59.95;54.05;;;;;;;;;;4968726;28;20019;-82
2022/02/15 03:16:13;;;;;;;60.67;54.17;;;;;;;;;;4954497;29;20483;-83
2022/02/15 03:18:38;;;;;;;60.55;54.40;;;;;;;;;;4949886;29;20024;-85
2022/02/15 03:21:03;;;;;;;74.17;58.83;;;;;;;;;;4947844;29;20019;-82
2022/02/15 03:23:29;;;;;;;63.25;54.65;;;;;;;;;;4950587;29;20043;-81
2022/02/15 03:25:54;;;;;;;62.90;54.90;;;;;;;;;;4956056;28;20019;-83
2022/02/15 03:28:19;;;;;;;65.03;56.57;;;;;;;;;;4950322;29;20034;-84
2022/02/15 03:30:44;;;;;;;61.30;54.80;;;;;;;;;;4951077;29;20487;-82
2022/02/15 03:33:09;;;;;;;60.00;53.78;;;;;;;;;;4947667;29;20399;-82
2022/02/15 03:35:35;;;;;;;60.00;53.83;;;;;;;;;;4953106;29;20027;-81
2022/02/15 03:38:00;;;;;;;59.97;53.60;;;;;;;;;;4948796;29;20031;-80
2022/02/15 03:43:05;;;;;;;63.43;54.53;;;;;;;;;;4947821;29;20016;-81
2022/02/15 03:43:14;;;;;;;59.45;53.25;;;;;;;;;;4948987;29;20030;-83
2022/02/15 03:45:39;;;;;;;59.47;53.17;;;;;;;;;;4957186;29;20062;-80
2022/02/15 03:48:05;;;;;;;58.70;52.63;;;;;;;;;;4953771;29;20035;-80
2022/02/15 03:50:30;;;;;;;59.83;53.47;;;;;;;;;;4954663;28;20114;-79
2022/02/15 03:52:55;;;;;;;60.60;54.13;;;;;;;;;;4951358;29;20023;-80
2022/02/15 03:55:20;;;;;;;58.63;52.63;;;;;;;;;;4957629;29;20027;-80
2022/02/15 03:57:46;;;;;;;61.30;54.10;;;;;;;;;;4959653;29;20020;-81
2022/02/15 04:00:11;;;;;;;59.50;53.03;;;;;;;;;;4956452;29;20019;-81
2022/02/15 04:02:37;;;;;;;58.83;52.70;;;;;;;;;;4960308;29;20018;-80
2022/02/15 04:05:02;;;;;;;58.30;52.40;;;;;;;;;;4967488;29;20099;-81
2022/02/15 04:07:27;;;;;;;57.60;52.10;;;;;;;;;;4966155;28;20050;-80
2022/02/15 04:09:52;;;;;;;64.33;53.80;;;;;;;;;;4965293;28;20051;-79
2022/02/15 04:12:18;;;;;;;58.17;52.10;;;;;;;;;;4963276;28;20024;-81
2022/02/15 04:14:43;;;;;;;58.50;52.30;;;;;;;;;;4971470;28;20019;-79
2022/02/15 04:17:08;;;;;;;58.13;51.80;;;;;;;;;;4964617;29;20023;-79
2022/02/15 04:19:33;;;;;;;57.27;51.30;;;;;;;;;;4970593;28;20020;-80
2022/02/15 04:21:58;;;;;;;56.40;50.77;;;;;;;;;;4963758;29;20066;-81
2022/02/15 04:24:23;;;;;;;57.53;51.60;;;;;;;;;;4971324;28;20031;-79
2022/02/15 04:26:49;;;;;;;56.40;50.63;;;;;;;;;;4965277;29;20036;-80
2022/02/15 04:29:14;;;;;;;57.60;51.50;;;;;;;;;;4961295;29;20032;-80
2022/02/15 04:31:39;;;;;;;57.20;51.33;;;;;;;;;;4957770;29;20167;-77
2022/02/15 04:34:05;;;;;;;55.97;50.37;;;;;;;;;;4967958;29;20126;-79
2022/02/15 04:36:30;;;;;;;58.05;51.83;;;;;;;;;;4969743;28;20039;-81
2022/02/15 04:38:55;;;;;;;55.47;49.87;;;;;;;;;;4968978;29;20023;-80
2022/02/15 04:41:20;;;;;;;57.87;51.83;;;;;;;;;;4958020;29;20038;-79
2022/02/15 04:43:46;;;;;;;57.50;51.30;;;;;;;;;;4959614;29;20090;-81
2022/02/15 04:46:11;;;;;;;58.17;52.00;;;;;;;;;;4962020;29;20023;-81
2022/02/15 04:48:36;;;;;;;57.37;51.13;;;;;;;;;;4963285;29;20040;-82
2022/02/15 04:51:01;;;;;;;67.30;53.73;;;;;;;;;;4951976;28;20087;-81
2022/02/15 04:53:26;;;;;;;57.13;51.47;;;;;;;;;;4954727;29;20433;-82
2022/02/15 04:55:52;;;;;;;57.60;51.70;;;;;;;;;;4957308;29;20035;-82
2022/02/15 04:58:17;;;;;;;57.43;51.47;;;;;;;;;;4955058;29;20019;-82
2022/02/15 05:00:43;;;;;;;63.50;52.57;;;;;;;;;;4950621;29;20497;-81
2022/02/15 05:03:08;;;;;;;62.53;52.75;;;;;;;;;;4946607;29;20030;-81
2022/02/15 05:05:33;;;;;;;56.07;50.57;;;;;;;;;;4952791;29;20063;-82
2022/02/15 05:07:58;;;;;;;62.03;53.67;;;;;;;;;;4951532;29;20024;-82
2022/02/15 05:10:24;;;;;;;57.30;51.53;;;;;;;;;;4955028;29;20031;-82
2022/02/15 05:12:49;;;;;;;62.50;53.50;;;;;;;;;;4944736;29;20090;-81
2022/02/15 05:15:14;;;;;;;57.90;52.05;;;;;;;;;;4955400;29;20081;-82
2022/02/15 05:17:43;;;;;;;57.27;51.53;;;;;;;;;;4952980;29;20035;-82
2022/02/15 05:20:09;;;;;;;68.40;53.90;;;;;;;;;;4946520;28;20020;-82
2022/02/15 05:22:34;;;;;;;63.53;53.00;;;;;;;;;;4943477;29;20015;-80
2022/02/15 05:24:59;;;;;;;62.10;52.33;;;;;;;;;;4936970;29;20107;-82
2022/02/15 05:27:24;;;;;;;57.47;51.58;;;;;;;;;;4955997;29;20019;-81
2022/02/15 05:29:50;;;;;;;58.70;52.37;;;;;;;;;;4957493;28;20039;-81
2022/02/15 05:32:15;;;;;;;79.00;55.10;;;;;;;;;;4965611;23;20048;-81
2022/02/15 05:34:42;;;;;;;57.67;51.83;;;;;;;;;;4945499;29;20177;-79
2022/02/15 05:37:07;;;;;;;63.75;53.22;;;;;;;;;;4950398;29;20074;-80
2022/02/15 05:39:33;;;;;;;58.40;52.33;;;;;;;;;;4940909;29;20020;-82
2022/02/15 05:41:58;;;;;;;65.17;53.37;;;;;;;;;;4941355;29;20075;-81
2022/02/15 05:44:23;;;;;;;59.03;52.63;;;;;;;;;;4939732;29;20023;-80
2022/02/15 05:46:48;;;;;;;59.13;52.00;;;;;;;;;;4930228;29;20035;-80
2022/02/15 05:49:14;;;;;;;58.77;52.33;;;;;;;;;;4948836;29;20407;-80
2022/02/15 05:51:39;;;;;;;59.80;53.33;;;;;;;;;;4941434;29;20032;-80
2022/02/15 05:54:05;;;;;;;59.90;53.42;;;;;;;;;;4943002;29;20028;-83
2022/02/15 05:56:31;;;;;;;62.30;53.50;;;;;;;;;;4942376;29;20123;-81
2022/02/15 05:58:56;;;;;;;60.22;52.90;;;;;;;;;;4952371;29;20499;-82
2022/02/15 06:01:21;;;;;;;67.10;52.47;;;;;;;;;;4947204;29;20055;-82
2022/02/15 06:06:30;;;;;;;59.55;52.95;;;;;;;;;;4953576;29;20054;-79
2022/02/15 06:08:58;;;;;;;60.47;53.30;;;;;;;;;;4958936;28;20028;-80
2022/02/15 06:11:23;;;;;;;68.85;55.13;;;;;;;;;;4959490;28;20023;-80
2022/02/15 06:13:50;;;;;;;63.35;52.85;;;;;;;;;;4964987;28;20075;-81
2022/02/15 06:16:20;;;;;;;59.78;52.83;;;;;;;;;;4960611;28;20278;-80
2022/02/15 06:18:45;;;;;;;59.25;52.83;;;;;;;;;;4961547;28;20087;-80
2022/02/15 06:21:10;;;;;;;58.93;52.63;;;;;;;;;;4963703;28;20046;-79
2022/02/15 06:23:35;;;;;;;71.83;55.37;;;;;;;;;;4969045;28;20023;-81
2022/02/15 06:26:01;;;;;;;63.97;52.90;;;;;;;;;;4950757;29;20140;-82
2022/02/15 06:28:26;;;;;;;61.47;53.60;;;;;;;;;;4950278;29;20035;-81
2022/02/15 06:30:51;;;;;;;61.83;54.30;;;;;;;;;;4955760;29;20028;-82
2022/02/15 06:33:16;;;;;;;68.57;54.93;;;;;;;;;;4957895;29;20031;-80
2022/02/15 06:35:41;;;;;;;73.40;55.53;;;;;;;;;;4952932;29;20051;-81
2022/02/15 06:38:06;;;;;;;62.60;54.03;;;;;;;;;;4955403;29;20020;-80
2022/02/15 06:40:32;;;;;;;68.10;53.03;;;;;;;;;;4954636;29;20052;-82
2022/02/15 06:43:00;;;;;;;79.43;57.37;;;;;;;;;;4955664;28;20023;-81
2022/02/15 06:45:25;;;;;;;62.45;53.67;;;;;;;;;;4935177;29;20094;-79
2022/02/15 06:47:50;;;;;;;66.27;53.67;;;;;;;;;;4967349;29;20036;-81
2022/02/15 06:50:15;;;;;;;66.97;54.53;;;;;;;;;;4951954;29;20072;-82
2022/02/15 06:52:41;;;;;;;71.13;55.83;;;;;;;;;;4954529;29;20027;-78
2022/02/15 06:55:07;;;;;;;65.47;53.88;;;;;;;;;;4945858;28;20047;-82
2022/02/15 06:57:32;;;;;;;69.47;55.23;;;;;;;;;;4946389;29;20099;-82
2022/02/15 06:59:57;;;;;;;123.00;69.80;;;;;;;;;;4960840;29;20031;-84
2022/02/15 07:02:22;;;;;;;65.37;55.80;;;;;;;;;;4957632;29;20016;-83
2022/02/15 07:04:48;;;;;;;90.10;64.97;;;;;;;;;;4954427;28;20028;-84
2022/02/15 07:07:13;;;;;;;108.90;62.37;;;;;;;;;;4951055;29;20030;-84
2022/02/15 07:09:39;;;;;;;102.03;60.63;;;;;;;;;;4960162;29;20051;-82
2022/02/15 07:12:15;;;;;;;81.77;57.07;;;;;;;;;;4970221;28;20031;-82
2022/02/15 07:14:40;;;;;;;74.78;55.33;;;;;;;;;;4955261;29;20035;-80
2022/02/15 07:17:07;;;;;;;76.23;56.43;;;;;;;;;;4962692;29;20031;-82
2022/02/15 07:19:33;;;;;;;60.53;53.60;;;;;;;;;;4964944;29;20063;-82
2022/02/15 07:21:59;;;;;;;86.37;58.97;;;;;;;;;;4965385;29;20035;-83
2022/02/15 07:24:24;;;;;;;85.97;58.28;;;;;;;;;;4959686;29;20043;-82
2022/02/15 07:26:49;;;;;;;67.40;54.95;;;;;;;;;;4958729;29;20042;-80
2022/02/15 07:29:15;;;;;;;89.67;60.00;;;;;;;;;;4956876;29;20027;-81
2022/02/15 07:31:50;;;;;;;65.03;54.77;;;;;;;;;;4959634;29;20027;-82
2022/02/15 07:34:15;;;;;;;64.60;55.08;;;;;;;;;;4945862;28;20388;-81
2022/02/15 07:36:40;;;;;;;69.17;55.70;;;;;;;;;;4942895;29;20034;-80
2022/02/15 07:39:05;;;;;;;61.40;54.83;;;;;;;;;;4946606;29;20055;-80
2022/02/15 07:41:31;;;;;;;60.63;54.07;;;;;;;;;;4951746;28;20023;-82
2022/02/15 07:43:56;;;;;;;65.00;55.57;;;;;;;;;;4941236;29;20098;-81
2022/02/15 07:46:24;;;;;;;62.08;55.20;;;;;;;;;;4938904;29;20055;-81
2022/02/15 07:48:50;;;;;;;71.07;55.65;;;;;;;;;;4943665;29;20046;-80
2022/02/15 07:51:15;;;;;;;64.40;54.67;;;;;;;;;;4939629;29;20039;-84
2022/02/15 07:53:44;;;;;;;76.95;56.95;;;;;;;;;;4946961;28;20148;-84
2022/02/15 07:56:10;;;;;;;72.05;56.30;;;;;;;;;;4943210;29;20050;-82
2022/02/15 07:58:41;;;;;;;67.45;54.85;;;;;;;;;;4948078;29;20526;-81
2022/02/15 08:01:06;;;;;;;65.70;54.78;;;;;;;;;;4950516;29;20038;-82
2022/02/15 08:03:32;;;;;;;77.17;57.60;;;;;;;;;;4949157;29;20019;-79
2022/02/15 08:05:57;;;;;;;71.83;57.33;;;;;;;;;;4948092;29;20023;-82
2022/02/15 08:08:23;;;;;;;71.37;56.37;;;;;;;;;;4951096;29;20030;-81
2022/02/15 08:10:48;;;;;;;84.80;58.33;;;;;;;;;;4947789;29;20035;-82
2022/02/15 08:16:56;;;;;;;71.72;57.10;;;;;;;;;;4933637;29;20043;-82
2022/02/15 08:22:46;;;;;;;73.32;56.95;;;;;;;;;;4955300;28;20090;-82
2022/02/15 08:25:12;;;;;;;102.70;61.95;;;;;;;;;;4948089;29;20062;-83
2022/02/15 08:27:37;;;;;;;70.27;55.93;;;;;;;;;;4949703;28;20035;-83
2022/02/15 08:30:03;;;;;;;64.87;55.33;;;;;;;;;;4948076;29;20250;-80
2022/02/15 08:32:31;;;;;;;76.55;57.00;;;;;;;;;;4945368;29;20083;-81
2022/02/15 08:35:03;;;;;;;67.32;55.35;;;;;;;;;;4940956;29;20047;-84
2022/02/15 08:37:29;;;;;;;64.20;54.42;;;;;;;;;;4953943;29;20098;-81
2022/02/15 08:39:57;;;;;;;62.60;54.63;;;;;;;;;;4943699;28;20043;-83
2022/02/15 08:42:28;;;;;;;64.35;53.88;;;;;;;;;;4961042;28;20086;-87
2022/02/15 08:45:02;;;;;;;65.95;54.78;;;;;;;;;;4945346;29;20032;-88
2022/02/15 08:47:27;;;;;;;61.65;54.85;;;;;;;;;;4951433;29;20087;-83
2022/02/15 08:49:55;;;;;;;67.13;55.33;;;;;;;;;;4945517;28;20023;-81
2022/02/15 08:52:26;;;;;;;73.05;55.85;;;;;;;;;;4943565;29;20022;-83
2022/02/15 08:54:56;;;;;;;63.25;55.13;;;;;;;;;;4945366;29;20051;-82
2022/02/15 08:57:22;;;;;;;65.28;55.75;;;;;;;;;;4950843;29;20110;-84
2022/02/15 08:59:53;;;;;;;67.90;55.35;;;;;;;;;;4944438;29;20048;-84
2022/02/15 09:02:19;;;;;;;67.97;55.97;;;;;;;;;;4943891;29;20026;-82
2022/02/15 09:04:44;;;;;;;68.82;55.80;;;;;;;;;;4943323;29;20099;-81
2022/02/15 09:07:09;;;;;;;71.70;55.77;;;;;;;;;;4952720;29;20463;-83
2022/02/15 09:09:35;;;;;;;63.23;55.00;;;;;;;;;;4940709;29;20028;-84
2022/02/15 09:12:01;;;;;;;66.65;55.85;;;;;;;;;;4925516;29;20048;-82
2022/02/15 09:14:28;;;;;;;75.88;57.08;;;;;;;;;;4939272;29;20035;-82
2022/02/15 09:16:53;;;;;;;71.38;57.45;;;;;;;;;;4944420;29;20491;-82
2022/02/15 09:19:18;;;;;;;70.37;57.07;;;;;;;;;;4944242;29;20042;-82
2022/02/15 09:21:47;;;;;;;70.80;56.13;;;;;;;;;;4945831;29;20077;-84
2022/02/15 09:24:12;;;;;;;69.70;56.40;;;;;;;;;;4952734;29;20016;-81
2022/02/15 09:26:37;;;;;;;113.83;62.40;;;;;;;;;;4965887;28;20059;-82
2022/02/15 09:29:09;;;;;;;71.07;56.63;;;;;;;;;;4965743;29;20008;-80
2022/02/15 09:31:37;;;;;;;72.60;56.13;;;;;;;;;;4958513;29;20016;-82
2022/02/15 09:34:06;;;;;;;72.82;56.40;;;;;;;;;;4953434;29;20032;-79
2022/02/15 09:39:29;;;;;;;66.15;54.08;;;;;;;;;;4958487;29;20026;-82
2022/02/15 09:41:55;;;;;;;72.43;54.90;;;;;;;;;;4950532;29;20023;-80
2022/02/15 09:44:20;;;;;;;74.10;55.80;;;;;;;;;;4938720;29;20051;-81
2022/02/15 09:46:46;;;;;;;73.83;56.00;;;;;;;;;;4940167;29;20448;-83
2022/02/15 09:51:55;;;;;;;65.57;53.80;;;;;;;;;;4923112;29;20035;-84
2022/02/15 09:54:23;;;;;;;69.17;55.07;;;;;;;;;;4931098;29;20419;-83
2022/02/15 09:56:57;;;;;;;66.32;53.70;;;;;;;;;;4940200;29;20073;-84
2022/02/15 09:59:27;;;;;;;68.93;54.30;;;;;;;;;;4943121;28;20095;-82
2022/02/15 10:01:53;;;;;;;64.88;53.22;;;;;;;;;;4943240;29;20089;-84
2022/02/15 10:04:31;;;;;;;71.60;54.67;;;;;;;;;;4937617;29;20094;-84
2022/02/15 10:06:57;;;;;;;64.78;53.20;;;;;;;;;;4944275;29;20041;-83
2022/02/15 10:09:25;;;;;;;71.93;54.10;;;;;;;;;;4942382;29;20068;-83
2022/02/15 10:11:53;;;;;;;86.13;56.05;;;;;;;;;;4949465;23;20027;-81
2022/02/15 10:14:19;;;;;;;78.22;55.45;;;;;;;;;;4986017;28;20157;-77
2022/02/15 10:16:46;;;;;;;73.22;55.53;;;;;;;;;;4976785;28;20082;-80
2022/02/15 10:19:11;;;;;;;;;;;;;;;;;;4979860;28;20075;-79
2022/02/15 10:21:40;;;;;;;63.03;54.05;;;;;;;;;;4995566;28;19952;-79
2022/02/15 10:24:14;;;;;;;57.97;51.72;;;;;;;;;;4972858;28;20058;-79
2022/02/15 10:26:40;;;;;;;62.85;53.40;;;;;;;;;;4976471;28;20026;-79
2022/02/15 10:29:05;;;;;;;59.83;52.73;;;;;;;;;;4977739;28;20022;-79
2022/02/15 10:31:38;;;;;;;68.23;54.43;;;;;;;;;;4977464;28;20023;-78
2022/02/15 10:34:04;;;;;;;72.20;54.35;;;;;;;;;;4973470;28;20031;-79
2022/02/15 10:36:29;;;;;;;68.80;54.60;;;;;;;;;;4976439;28;20606;-79
2022/02/15 10:38:56;;;;;;;68.40;54.65;;;;;;;;;;4974898;28;20082;-80
2022/02/15 10:41:21;;;;;;;62.38;53.33;;;;;;;;;;4980332;28;20042;-79
2022/02/15 10:43:51;;;;;;;82.30;58.23;;;;;;;;;;4979161;28;20030;-79
2022/02/15 10:46:22;;;;;;;64.55;55.45;;;;;;;;;;4983553;28;20046;-77
2022/02/15 10:48:47;;;;;;;65.45;54.70;;;;;;;;;;4985929;28;20030;-78
2022/02/15 10:51:14;;;;;;;62.93;53.60;;;;;;;;;;4988640;28;20014;-78
2022/02/15 10:53:39;;;;;;;91.07;60.70;;;;;;;;;;4984779;28;20031;-79
2022/02/15 10:56:05;;;;;;;68.28;55.53;;;;;;;;;;4988496;28;20040;-79
2022/02/15 10:58:31;;;;;;;64.75;54.42;;;;;;;;;;4990240;28;20011;-78
2022/02/15 11:00:58;;;;;;;60.78;54.10;;;;;;;;;;4993000;28;20691;-79
2022/02/15 11:03:30;;;;;;;74.03;56.10;;;;;;;;;;4983803;28;20581;-78
2022/02/15 11:05:56;;;;;;;71.43;56.58;;;;;;;;;;4979539;28;20118;-77
2022/02/15 11:08:23;;;;;;;67.32;55.58;;;;;;;;;;4987686;28;20019;-80
2022/02/15 11:11:07;;;;;;;73.55;56.90;;;;;;;;;;4990711;28;20023;-83
2022/02/15 11:13:34;;;;;;;90.35;58.55;;;;;;;;;;4982272;28;20027;-80
2022/02/15 11:16:02;;;;;;;73.97;56.47;;;;;;;;;;4984491;28;20369;-82
2022/02/15 11:18:31;;;;;;;68.28;56.08;;;;;;;;;;4989906;28;20029;-81
2022/02/15 11:20:58;;;;;;;65.93;55.30;;;;;;;;;;5002586;28;20029;-83
2022/02/15 11:23:24;;;;;;;87.15;59.33;;;;;;;;;;5004230;28;20029;-83
2022/02/15 11:26:01;;;;;;;110.38;62.28;;;;;;;;;;5001011;28;20050;-83
2022/02/15 11:28:27;;;;;;;81.40;57.90;;;;;;;;;;4982539;28;20031;-84
2022/02/15 11:30:56;;;;;;;98.35;61.05;;;;;;;;;;4986430;28;20260;-85
2022/02/15 11:33:23;;;;;;;72.28;57.72;;;;;;;;;;5001563;23;20035;-84
2022/02/15 11:35:49;;;;;;;84.70;58.67;;;;;;;;;;5012083;28;20045;-83
2022/02/15 11:38:14;;;;;;;70.53;56.35;;;;;;;;;;4999611;28;20006;-85
2022/02/15 11:40:39;;;;;;;76.97;59.37;;;;;;;;;;5013429;28;20046;-82
2022/02/15 11:43:06;;;;;;;84.47;59.47;;;;;;;;;;5007404;28;20033;-85
2022/02/15 11:45:32;;;;;;;72.82;58.40;;;;;;;;;;5013184;28;20087;-83
2022/02/15 11:48:07;;;;;;;71.03;57.92;;;;;;;;;;4998264;28;20019;-83
2022/02/15 11:50:43;;;;;;;68.00;55.95;;;;;;;;;;4968662;29;20510;-84
2022/02/15 11:53:08;;;;;;;77.00;59.13;;;;;;;;;;4986052;28;20055;-85
2022/02/15 11:55:40;;;;;;;62.47;55.63;;;;;;;;;;4992548;28;20131;-84
2022/02/15 11:58:09;;;;;;;65.30;57.03;;;;;;;;;;4995426;28;20022;-85
2022/02/15 12:00:36;;;;;;;130.27;78.38;;;;;;;;;;5003183;28;20038;-83
2022/02/15 12:03:01;;;;;;;82.10;61.55;;;;;;;;;;4986802;28;20034;-87
2022/02/15 12:05:28;;;;;;;77.57;59.60;;;;;;;;;;4982593;28;20026;-84
2022/02/15 12:07:57;;;;;;;147.20;73.32;;;;;;;;;;4973035;28;20028;-86
2022/02/15 12:10:24;;;;;;;67.90;56.67;;;;;;;;;;4986343;28;20027;-84
2022/02/15 12:12:52;;;;;;;64.53;57.13;;;;;;;;;;4980672;28;20110;-85
2022/02/15 12:15:22;;;;;;;63.35;56.47;;;;;;;;;;4996488;28;20023;-85
2022/02/15 12:17:48;;;;;;;61.90;55.22;;;;;;;;;;4984692;28;20040;-87
2022/02/15 12:20:14;;;;;;;63.22;56.50;;;;;;;;;;4991671;28;20022;-87
2022/02/15 12:22:41;;;;;;;64.20;57.17;;;;;;;;;;4995816;28;20038;-84
2022/02/15 12:25:06;;;;;;;62.28;55.83;;;;;;;;;;4992591;28;20023;-85
2022/02/15 12:27:31;;;;;;;62.97;56.37;;;;;;;;;;4988552;28;20041;-84
2022/02/15 12:29:57;;;;;;;63.33;55.77;;;;;;;;;;4994893;28;20026;-85
2022/02/15 12:32:23;;;;;;;62.90;56.20;;;;;;;;;;4992046;28;20023;-85
2022/02/15 12:34:50;;;;;;;63.80;55.88;;;;;;;;;;4993744;28;20082;-85
2022/02/15 12:37:27;;;;;;;67.13;56.65;;;;;;;;;;5002329;28;20022;-84
2022/02/15 12:39:57;;;;;;;61.00;54.40;;;;;;;;;;4969743;28;20055;-84
2022/02/15 12:42:28;;;;;;;62.05;55.47;;;;;;;;;;4984873;28;20027;-85
2022/02/15 12:45:03;;;;;;;60.08;53.92;;;;;;;;;;4989566;28;20015;-85
2022/02/15 12:47:35;;;;;;;61.30;54.92;;;;;;;;;;4987447;28;20019;-92
2022/02/15 12:50:01;;;;;;;60.22;54.05;;;;;;;;;;4984610;28;20607;-86
2022/02/15 12:55:12;;;;;;;62.40;55.63;;;;;;;;;;4973258;28;20058;-84
2022/02/15 12:57:38;;;;;;;63.08;56.17;;;;;;;;;;4974805;28;20026;-83
2022/02/15 13:00:04;;;;;;;61.08;54.72;;;;;;;;;;4980257;28;20031;-81
2022/02/15 13:02:32;;;;;;;62.83;55.90;;;;;;;;;;4956398;28;20462;-83
2022/02/15 13:04:58;;;;;;;61.80;55.30;;;;;;;;;;4955923;28;20500;-81
2022/02/15 13:07:24;;;;;;;62.35;55.63;;;;;;;;;;4958082;28;20026;-83
2022/02/15 13:09:50;;;;;;;60.13;54.23;;;;;;;;;;4977301;28;20015;-82
2022/02/15 13:12:21;;;;;;;64.38;56.75;;;;;;;;;;4963088;29;20245;-82
2022/02/15 13:14:52;;;;;;;67.45;58.83;;;;;;;;;;4960941;28;20033;-82
2022/02/15 13:17:18;;;;;;;68.32;58.10;;;;;;;;;;4971678;28;20030;-82
2022/02/15 13:19:44;;;;;;;64.30;56.42;;;;;;;;;;4976107;28;20015;-82
2022/02/15 13:22:09;;;;;;;61.53;55.23;;;;;;;;;;4961420;28;20027;-82
2022/02/15 13:24:34;;;;;;;65.63;58.27;;;;;;;;;;4951833;28;20023;-82
2022/02/15 13:27:00;;;;;;;64.23;56.00;;;;;;;;;;4963275;28;20027;-83
2022/02/15 13:29:31;;;;;;;67.17;58.70;;;;;;;;;;4980869;28;20417;-83
2022/02/15 13:31:56;;;;;;;67.50;58.00;;;;;;;;;;4958393;29;20030;-83
2022/02/15 13:34:35;;;;;;;71.53;58.93;;;;;;;;;;4953592;28;20019;-83
2022/02/15 13:37:09;;;;;;;73.07;60.08;;;;;;;;;;4970243;28;20031;-83
2022/02/15 13:39:38;;;;;;;81.75;61.80;;;;;;;;;;4981688;28;20018;-83
2022/02/15 13:42:04;;;;;;;67.45;57.60;;;;;;;;;;4960521;28;20011;-84
2022/02/15 13:44:29;;;;;;;70.28;58.08;;;;;;;;;;4955253;28;20030;-83
2022/02/15 13:46:56;;;;;;;63.33;55.67;;;;;;;;;;4959179;28;20031;-83
2022/02/15 13:49:21;;;;;;;;;;;;;;;;;;4967488;28;20139;-82
2022/02/15 13:51:47;;;;;;;66.68;56.67;;;;;;;;;;4960489;28;19906;-84
2022/02/15 13:54:12;;;;;;;64.35;57.17;;;;;;;;;;4944352;28;20326;-85
2022/02/15 13:56:38;;;;;;;63.57;56.57;;;;;;;;;;4971681;28;20039;-83
2022/02/15 13:59:07;;;;;;;62.80;56.07;;;;;;;;;;4986646;28;20010;-82
2022/02/15 14:01:32;;;;;;;64.70;55.70;;;;;;;;;;4968730;28;20018;-79
2022/02/15 14:03:58;;;;;;;65.15;56.03;;;;;;;;;;4968576;28;20011;-84
2022/02/15 14:06:23;;;;;;;61.58;54.88;;;;;;;;;;4970257;28;20058;-81
2022/02/15 14:08:49;;;;;;;63.97;57.13;;;;;;;;;;4969141;28;20092;-81
2022/02/15 14:11:14;;;;;;;63.17;56.33;;;;;;;;;;4967217;28;20090;-83
2022/02/15 14:13:40;;;;;;;63.05;56.00;;;;;;;;;;4966009;28;20047;-83
2022/02/15 14:16:05;;;;;;;68.65;58.40;;;;;;;;;;4966384;28;20030;-81
2022/02/15 14:18:31;;;;;;;61.70;55.10;;;;;;;;;;4971829;28;20026;-82
2022/02/15 14:20:56;;;;;;;62.40;55.70;;;;;;;;;;4959135;28;20023;-82
2022/02/15 14:23:22;;;;;;;62.40;55.77;;;;;;;;;;4959022;28;20029;-84
2022/02/15 14:25:48;;;;;;;62.57;55.87;;;;;;;;;;4960020;28;20085;-83
2022/02/15 14:28:14;;;;;;;63.45;56.42;;;;;;;;;;4971631;28;20389;-81
2022/02/15 14:30:40;;;;;;;62.25;55.75;;;;;;;;;;4953653;29;20457;-80
2022/02/15 14:33:06;;;;;;;70.65;58.70;;;;;;;;;;4952327;28;20023;-81
2022/02/15 14:35:32;;;;;;;63.05;56.13;;;;;;;;;;4958663;28;20049;-81